Time;durP1;ratioP1;P1;durP2;ratioP2;P2;SDS_P1;SDS_P2;PMS_P1;PMS_P2;Temp;Humidity;BMP_temperature;BMP_pressure;BME280_temperature;BME280_humidity;BME280_pressure;Samples;Min_cycle;Max_cycle;Signal;HPM_P1;HPM_P2
2023/07/27 00:00:27;;;;;;;6.87;3.90;;;17.60;99.90;;;;;;5014601;28;20238;-75
2023/07/27 00:02:53;;;;;;;4.27;3.80;;;17.70;99.90;;;;;;5014363;28;20556;-75
2023/07/27 00:05:19;;;;;;;5.07;4.00;;;17.70;99.90;;;;;;5014460;28;20612;-75
2023/07/27 00:07:44;;;;;;;4.27;3.87;;;17.70;99.90;;;;;;5014146;28;20299;-75
2023/07/27 00:10:10;;;;;;;4.70;3.83;;;17.70;99.90;;;;;;5014757;28;20180;-75
2023/07/27 00:12:35;;;;;;;5.77;3.80;;;17.70;99.90;;;;;;5014203;28;20172;-76
2023/07/27 00:15:01;;;;;;;3.87;3.47;;;17.70;99.90;;;;;;5014605;28;20188;-75
2023/07/27 00:17:27;;;;;;;4.10;3.80;;;17.70;99.90;;;;;;5014518;28;20262;-75
2023/07/27 00:19:53;;;;;;;4.47;4.10;;;17.70;99.90;;;;;;5014669;28;20180;-76
2023/07/27 00:22:18;;;;;;;4.57;3.67;;;17.70;99.90;;;;;;5012967;28;20188;-75
2023/07/27 00:24:44;;;;;;;4.93;3.73;;;17.70;99.90;;;;;;5014371;28;20294;-76
2023/07/27 00:27:09;;;;;;;4.50;4.10;;;17.70;99.90;;;;;;5014327;28;20176;-75
2023/07/27 00:29:35;;;;;;;5.43;3.90;;;17.70;99.90;;;;;;5014407;28;20192;-75
2023/07/27 00:32:00;;;;;;;5.60;3.87;;;17.70;99.90;;;;;;5013805;28;20593;-75
2023/07/27 00:34:26;;;;;;;4.00;3.60;;;17.60;99.90;;;;;;5014296;28;20270;-75
2023/07/27 00:36:52;;;;;;;4.77;3.73;;;17.60;99.90;;;;;;5013031;28;20180;-75
2023/07/27 00:39:17;;;;;;;5.57;3.93;;;17.60;99.90;;;;;;5014129;28;20207;-76
2023/07/27 00:41:43;;;;;;;8.00;3.90;;;17.60;99.90;;;;;;5013921;28;20191;-75
2023/07/27 00:44:10;;;;;;;6.40;3.77;;;17.60;99.90;;;;;;5013318;28;20263;-75
2023/07/27 00:46:36;;;;;;;4.53;4.10;;;17.50;99.90;;;;;;5013752;28;20172;-75
2023/07/27 00:49:03;;;;;;;7.77;3.90;;;17.50;99.90;;;;;;5014333;28;20226;-75
2023/07/27 00:51:34;;;;;;;7.07;3.70;;;17.50;99.90;;;;;;5012605;28;20207;-75
2023/07/27 00:54:01;;;;;;;6.10;3.60;;;17.50;99.90;;;;;;5013604;28;20188;-75
2023/07/27 00:56:27;;;;;;;5.40;3.80;;;17.50;99.90;;;;;;5013664;28;20204;-75
2023/07/27 00:58:52;;;;;;;3.73;3.40;;;17.50;99.90;;;;;;5012270;28;20608;-75
2023/07/27 01:01:19;;;;;;;5.63;3.60;;;17.40;99.90;;;;;;5013613;28;20184;-75
2023/07/27 01:03:44;;;;;;;5.57;4.17;;;17.50;99.90;;;;;;5012562;28;20559;-76
2023/07/27 01:06:11;;;;;;;4.13;3.73;;;17.50;99.90;;;;;;5013688;28;20204;-75
2023/07/27 01:08:36;;;;;;;6.00;3.90;;;17.50;99.90;;;;;;5011021;28;20216;-75
2023/07/27 01:11:26;;;;;;;6.90;4.20;;;17.50;99.90;;;;;;5012125;28;20269;-75
2023/07/27 01:14:26;;;;;;;7.03;3.93;;;17.50;99.90;;;;;;5013795;28;20164;-75
2023/07/27 01:17:03;;;;;;;6.70;4.63;;;17.50;99.90;;;;;;5013572;28;20697;-75
2023/07/27 01:19:56;;;;;;;6.00;5.30;;;17.50;99.90;;;;;;5013878;28;20282;-75
2023/07/27 01:22:31;;;;;;;4.93;4.40;;;17.50;99.90;;;;;;5012843;28;20238;-75
2023/07/27 01:25:34;;;;;;;4.73;3.83;;;17.50;99.90;;;;;;5013489;28;20251;-75
2023/07/27 01:28:11;;;;;;;4.57;4.17;;;17.50;99.90;;;;;;5013253;28;20669;-74
2023/07/27 01:30:48;;;;;;;4.97;4.10;;;17.50;99.90;;;;;;5013458;28;20182;-75
2023/07/27 01:33:16;;;;;;;9.30;4.33;;;17.60;99.90;;;;;;5012348;28;20242;-75
2023/07/27 01:36:01;;;;;;;5.63;4.20;;;17.50;99.90;;;;;;5013191;28;20207;-75
2023/07/27 01:38:30;;;;;;;4.23;3.83;;;17.60;99.90;;;;;;5013114;28;20561;-75
2023/07/27 01:40:57;;;;;;;6.33;4.20;;;17.60;99.90;;;;;;5011722;28;20188;-75
2023/07/27 01:43:24;;;;;;;5.13;3.77;;;17.60;99.90;;;;;;5012719;28;20180;-75
2023/07/27 01:45:51;;;;;;;8.27;4.30;;;17.60;99.90;;;;;;5012810;28;20204;-75
2023/07/27 01:48:17;;;;;;;4.50;4.07;;;17.60;99.90;;;;;;5012898;28;20192;-75
2023/07/27 01:50:44;;;;;;;3.97;3.67;;;17.70;99.90;;;;;;5012888;28;20186;-75
2023/07/27 01:53:11;;;;;;;4.50;3.77;;;17.70;99.90;;;;;;5012403;28;20540;-75
2023/07/27 01:55:38;;;;;;;9.13;4.17;;;17.70;99.90;;;;;;5012804;28;20187;-75
2023/07/27 01:58:04;;;;;;;4.40;3.90;;;17.70;99.90;;;;;;5012682;28;20673;-75
2023/07/27 02:00:31;;;;;;;4.60;3.97;;;17.60;99.90;;;;;;5012209;28;20583;-75
2023/07/27 02:02:58;;;;;;;4.20;3.90;;;17.60;99.90;;;;;;5012533;28;20176;-75
2023/07/27 02:05:24;;;;;;;6.53;4.03;;;17.60;99.90;;;;;;5012645;28;20638;-75
2023/07/27 02:07:50;;;;;;;4.37;3.97;;;17.60;99.90;;;;;;5011279;28;20212;-75
2023/07/27 02:10:18;;;;;;;6.50;4.40;;;17.60;99.90;;;;;;5012279;28;20187;-75
2023/07/27 02:13:00;;;;;;;4.53;4.13;;;17.60;99.90;;;;;;5012265;28;20303;-75
2023/07/27 02:15:32;;;;;;;6.27;4.37;;;17.60;99.90;;;;;;5012058;28;20267;-75
2023/07/27 02:18:09;;;;;;;7.23;4.17;;;17.50;99.90;;;;;;5011236;28;20196;-75
2023/07/27 02:20:36;;;;;;;5.67;4.07;;;17.50;99.90;;;;;;5012745;28;20589;-75
2023/07/27 02:23:04;;;;;;;4.23;3.87;;;17.50;99.90;;;;;;5011967;28;20548;-75
2023/07/27 02:25:30;;;;;;;5.03;4.00;;;17.40;99.90;;;;;;5012565;28;20212;-75
2023/07/27 02:27:55;;;;;;;4.27;3.90;;;17.40;99.90;;;;;;5012321;28;20219;-75
2023/07/27 02:30:21;;;;;;;6.20;3.90;;;17.30;99.90;;;;;;5012169;28;20172;-75
2023/07/27 02:32:46;;;;;;;5.77;4.27;;;17.20;99.90;;;;;;5011863;28;20411;-74
2023/07/27 02:35:12;;;;;;;5.33;4.57;;;17.10;99.90;;;;;;5012161;28;20176;-75
2023/07/27 02:37:38;;;;;;;4.50;4.10;;;17.00;99.90;;;;;;5012348;28;20207;-74
2023/07/27 02:40:04;;;;;;;4.27;3.83;;;16.80;99.90;;;;;;5012147;28;20548;-75
2023/07/27 02:42:29;;;;;;;5.53;4.60;;;16.70;99.90;;;;;;5011885;28;20595;-75
2023/07/27 02:44:55;;;;;;;4.60;4.20;;;16.50;99.90;;;;;;5011961;28;20290;-75
2023/07/27 02:47:20;;;;;;;5.70;4.60;;;16.30;99.90;;;;;;5010592;28;20215;-76
2023/07/27 02:49:46;;;;;;;8.73;5.00;;;16.10;99.90;;;;;;5012241;28;20288;-76
2023/07/27 02:52:12;;;;;;;7.53;5.50;;;16.00;99.90;;;;;;5011771;28;20172;-76
2023/07/27 02:54:37;;;;;;;6.40;4.73;;;16.00;99.90;;;;;;5012052;28;20197;-76
2023/07/27 02:57:03;;;;;;;7.63;4.90;;;15.90;99.90;;;;;;5011986;28;20180;-76
2023/07/27 02:59:29;;;;;;;7.70;5.03;;;15.80;99.90;;;;;;5011726;28;20844;-76
2023/07/27 03:01:54;;;;;;;5.73;5.23;;;15.70;99.90;;;;;;5011375;28;20184;-76
2023/07/27 03:04:20;;;;;;;5.50;5.00;;;15.70;99.90;;;;;;5011766;28;20196;-75
2023/07/27 03:06:45;;;;;;;10.03;5.13;;;15.70;99.90;;;;;;5011677;28;20275;-76
2023/07/27 03:09:11;;;;;;;8.83;4.97;;;15.60;99.90;;;;;;5011377;28;20192;-76
2023/07/27 03:11:37;;;;;;;6.40;5.20;;;15.60;99.90;;;;;;5011608;28;20186;-76
2023/07/27 03:14:04;;;;;;;6.37;5.67;;;15.60;99.90;;;;;;5011701;28;20638;-76
2023/07/27 03:16:30;;;;;;;6.10;5.50;;;15.50;99.90;;;;;;5011992;28;20236;-76
2023/07/27 03:18:56;;;;;;;6.13;5.53;;;15.50;99.90;;;;;;5012169;28;20199;-76
2023/07/27 03:21:22;;;;;;;6.17;5.57;;;15.40;99.90;;;;;;5011945;28;20229;-76
2023/07/27 03:23:48;;;;;;;6.00;5.40;;;15.40;99.90;;;;;;5011875;28;20180;-76
2023/07/27 03:26:15;;;;;;;5.80;5.20;;;15.40;99.90;;;;;;5012420;28;20621;-77
2023/07/27 03:28:41;;;;;;;6.43;5.70;;;15.30;99.90;;;;;;5011987;28;20548;-77
2023/07/27 03:31:18;;;;;;;6.33;5.70;;;15.20;99.90;;;;;;5013827;28;20600;-78
2023/07/27 03:33:44;;;;;;;6.03;5.40;;;15.20;99.90;;;;;;5013685;28;20172;-77
2023/07/27 03:36:09;;;;;;;5.77;5.27;;;15.10;99.90;;;;;;5012844;28;20237;-77
2023/07/27 03:38:35;;;;;;;6.17;5.67;;;15.10;99.90;;;;;;5013092;28;20208;-77
2023/07/27 03:41:01;;;;;;;6.27;5.67;;;15.00;99.90;;;;;;5012567;28;20264;-76
2023/07/27 03:43:27;;;;;;;6.57;5.53;;;15.00;99.90;;;;;;5012431;28;20255;-77
2023/07/27 03:45:53;;;;;;;6.03;5.43;;;14.90;99.90;;;;;;5012485;28;20749;-76
2023/07/27 03:48:19;;;;;;;6.23;5.20;;;14.90;99.90;;;;;;5012521;28;20211;-77
2023/07/27 03:50:44;;;;;;;6.93;5.63;;;14.90;99.90;;;;;;5010556;28;20538;-78
2023/07/27 03:53:10;;;;;;;6.63;5.90;;;14.90;99.90;;;;;;5012090;28;20193;-78
2023/07/27 03:55:36;;;;;;;6.10;5.50;;;14.80;99.90;;;;;;5012430;28;20610;-78
2023/07/27 03:58:02;;;;;;;6.60;5.93;;;14.80;99.90;;;;;;5012373;28;20215;-77
2023/07/27 04:00:27;;;;;;;6.43;5.93;;;14.90;99.90;;;;;;5011878;28;20546;-77
2023/07/27 04:02:53;;;;;;;6.90;6.20;;;14.80;99.90;;;;;;5012622;28;20227;-77
2023/07/27 04:05:19;;;;;;;317.10;146.83;;;14.80;99.90;;;;;;5013998;28;20208;-78
2023/07/27 04:07:44;;;;;;;7.43;5.70;;;14.80;99.90;;;;;;5011068;28;20215;-77
2023/07/27 04:10:10;;;;;;;7.70;5.73;;;14.80;99.90;;;;;;5011919;28;20191;-77
2023/07/27 04:12:35;;;;;;;6.90;6.20;;;14.80;99.90;;;;;;5012114;28;20669;-78
2023/07/27 04:15:02;;;;;;;9.23;6.57;;;14.80;99.90;;;;;;5012306;28;20669;-77
2023/07/27 04:17:28;;;;;;;8.87;6.40;;;14.80;99.90;;;;;;5012389;28;20552;-78
2023/07/27 04:19:53;;;;;;;6.47;5.33;;;14.80;99.90;;;;;;5011612;28;20278;-78
2023/07/27 04:22:19;;;;;;;7.27;6.20;;;14.80;99.90;;;;;;5013370;28;20215;-77
2023/07/27 04:24:44;;;;;;;10.03;5.47;;;14.80;99.90;;;;;;5014624;28;20219;-77
2023/07/27 04:27:11;;;;;;;7.23;6.13;;;14.80;99.90;;;;;;5014675;28;20518;-78
2023/07/27 04:29:37;;;;;;;11.50;6.27;;;14.80;99.90;;;;;;5013255;28;20192;-76
2023/07/27 04:32:02;;;;;;;9.07;6.43;;;14.90;99.90;;;;;;5012834;28;20646;-77
2023/07/27 04:34:28;;;;;;;7.87;6.20;;;14.80;99.90;;;;;;5014705;28;20226;-76
2023/07/27 04:36:54;;;;;;;9.67;6.70;;;14.90;99.90;;;;;;5014542;28;20180;-76
2023/07/27 04:39:19;;;;;;;8.77;7.23;;;14.90;99.90;;;;;;5014162;28;20567;-77
2023/07/27 04:41:45;;;;;;;8.53;7.43;;;14.90;99.90;;;;;;5014304;28;20630;-76
2023/07/27 04:44:10;;;;;;;6.70;6.00;;;14.90;99.90;;;;;;5014160;28;20222;-76
2023/07/27 04:46:36;;;;;;;9.03;7.50;;;14.90;99.90;;;;;;5013243;28;20234;-76
2023/07/27 04:49:02;;;;;;;6.90;6.30;;;14.90;99.90;;;;;;5014324;28;20188;-76
2023/07/27 04:51:27;;;;;;;7.87;6.90;;;14.90;99.90;;;;;;5011360;28;20186;-77
2023/07/27 04:53:53;;;;;;;7.63;6.23;;;14.90;99.90;;;;;;5013432;28;20646;-77
2023/07/27 04:56:19;;;;;;;7.37;6.53;;;14.90;99.90;;;;;;5012930;28;20184;-75
2023/07/27 04:58:44;;;;;;;8.27;6.57;;;14.90;99.90;;;;;;5013081;28;20666;-75
2023/07/27 05:01:10;;;;;;;8.17;6.63;;;14.90;99.90;;;;;;5013234;28;20168;-75
2023/07/27 05:03:35;;;;;;;7.17;6.47;;;14.90;99.90;;;;;;5013935;28;20188;-75
2023/07/27 05:06:01;;;;;;;6.80;6.10;;;14.90;99.90;;;;;;5013119;28;20212;-76
2023/07/27 05:08:27;;;;;;;8.33;6.87;;;14.90;99.90;;;;;;5012769;28;20203;-75
2023/07/27 05:10:52;;;;;;;9.63;6.37;;;14.90;99.90;;;;;;5013703;28;20172;-75
2023/07/27 05:13:18;;;;;;;9.00;6.77;;;14.80;99.90;;;;;;5013222;28;20239;-75
2023/07/27 05:15:44;;;;;;;7.60;6.90;;;14.80;99.90;;;;;;5012444;28;20179;-75
2023/07/27 05:18:10;;;;;;;7.77;6.63;;;14.80;99.90;;;;;;5013644;28;20604;-76
2023/07/27 05:20:35;;;;;;;6.80;6.20;;;14.80;99.90;;;;;;5013468;28;20234;-75
2023/07/27 05:23:01;;;;;;;7.33;6.70;;;14.80;99.90;;;;;;5011558;28;20180;-73
2023/07/27 05:25:26;;;;;;;9.73;6.50;;;14.70;99.90;;;;;;5013109;28;20274;-73
2023/07/27 05:27:52;;;;;;;8.30;6.57;;;14.70;99.90;;;;;;5012567;28;20275;-74
2023/07/27 05:30:18;;;;;;;9.77;7.13;;;14.70;99.90;;;;;;5012574;28;20179;-73
2023/07/27 05:32:43;;;;;;;9.30;7.30;;;14.70;99.90;;;;;;5012285;28;20183;-73
2023/07/27 05:35:09;;;;;;;9.23;6.87;;;14.70;99.90;;;;;;5013039;28;20545;-73
2023/07/27 05:37:35;;;;;;;8.77;7.03;;;14.70;99.90;;;;;;5012958;28;20267;-74
2023/07/27 05:40:00;;;;;;;8.20;6.17;;;14.70;99.90;;;;;;5013042;28;20168;-74
2023/07/27 05:42:26;;;;;;;9.47;6.70;;;14.70;99.90;;;;;;5011071;28;20180;-74
2023/07/27 05:44:51;;;;;;;6.70;6.10;;;14.70;99.90;;;;;;5012664;28;20196;-74
2023/07/27 05:47:18;;;;;;;6.97;6.20;;;14.70;99.90;;;;;;5012733;28;20527;-74
2023/07/27 05:49:44;;;;;;;7.90;6.57;;;14.70;99.90;;;;;;5012878;28;20173;-74
2023/07/27 05:52:09;;;;;;;8.63;6.90;;;14.70;99.90;;;;;;5011907;28;20183;-74
2023/07/27 05:54:35;;;;;;;9.13;6.97;;;14.70;99.90;;;;;;5012701;28;20254;-74
2023/07/27 05:57:01;;;;;;;8.27;6.90;;;14.70;99.90;;;;;;5012581;28;20521;-74
2023/07/27 05:59:26;;;;;;;8.00;6.97;;;14.70;99.90;;;;;;5012567;28;20188;-73
2023/07/27 06:01:52;;;;;;;7.63;6.87;;;14.70;99.90;;;;;;5010992;28;20188;-74
2023/07/27 06:04:18;;;;;;;8.37;6.73;;;14.70;99.90;;;;;;5012420;28;20211;-73
2023/07/27 06:06:47;;;;;;;10.87;7.03;;;14.80;99.90;;;;;;5012372;28;20180;-73
2023/07/27 06:09:14;;;;;;;9.83;7.63;;;14.80;99.90;;;;;;5010944;28;20550;-74
2023/07/27 06:11:40;;;;;;;10.20;7.97;;;14.80;99.90;;;;;;5012351;28;20164;-73
2023/07/27 06:14:05;;;;;;;10.00;7.20;;;14.90;99.90;;;;;;5010970;28;20227;-74
2023/07/27 06:16:31;;;;;;;8.07;7.33;;;14.90;99.90;;;;;;5012477;28;20176;-73
2023/07/27 06:18:57;;;;;;;9.53;7.57;;;14.90;99.90;;;;;;5012908;28;20733;-74
2023/07/27 06:21:22;;;;;;;10.73;7.83;;;14.90;99.90;;;;;;5011681;28;20239;-74
2023/07/27 06:23:48;;;;;;;10.27;8.47;;;14.90;99.90;;;;;;5012246;28;20175;-74
2023/07/27 06:26:13;;;;;;;9.80;8.10;;;14.90;99.90;;;;;;5010588;28;20318;-74
2023/07/27 06:28:39;;;;;;;11.27;7.97;;;15.00;99.90;;;;;;5012167;28;20199;-74
2023/07/27 06:31:05;;;;;;;8.67;7.67;;;15.00;99.90;;;;;;5011927;28;20187;-74
2023/07/27 06:33:30;;;;;;;8.83;7.93;;;15.10;99.90;;;;;;5011933;28;20169;-74
2023/07/27 06:35:57;;;;;;;10.43;8.30;;;15.10;99.90;;;;;;5012014;28;20172;-73
2023/07/27 06:38:22;;;;;;;12.97;8.17;;;15.10;99.90;;;;;;5011516;28;20199;-74
2023/07/27 06:40:48;;;;;;;11.37;8.50;;;15.10;99.90;;;;;;5012074;28;20306;-74
2023/07/27 06:43:14;;;;;;;8.60;7.70;;;15.20;99.90;;;;;;5010672;28;20238;-74
2023/07/27 06:45:39;;;;;;;10.53;8.27;;;15.10;99.90;;;;;;5011872;28;20204;-74
2023/07/27 06:48:05;;;;;;;9.67;7.97;;;15.20;99.90;;;;;;5010712;28;20297;-75
2023/07/27 06:50:31;;;;;;;9.63;8.70;;;15.20;99.90;;;;;;5010996;28;20556;-75
2023/07/27 06:52:56;;;;;;;14.53;8.47;;;15.30;99.90;;;;;;5010994;28;20172;-75
2023/07/27 06:55:22;;;;;;;8.83;7.93;;;15.30;99.90;;;;;;5011324;28;20184;-75
2023/07/27 06:57:48;;;;;;;8.33;7.20;;;15.40;99.90;;;;;;5011835;28;20604;-75
2023/07/27 07:00:14;;;;;;;10.17;7.90;;;15.40;99.90;;;;;;5011657;28;20176;-76
2023/07/27 07:02:39;;;;;;;7.40;6.70;;;15.40;99.90;;;;;;5011277;28;20180;-74
2023/07/27 07:05:05;;;;;;;8.80;6.60;;;15.50;99.90;;;;;;5011571;28;20204;-74
2023/07/27 07:07:31;;;;;;;7.03;6.33;;;15.60;99.90;;;;;;5011872;28;20208;-76
2023/07/27 07:09:57;;;;;;;7.17;6.13;;;15.70;99.90;;;;;;5010057;28;20215;-75
2023/07/27 07:12:22;;;;;;;6.60;6.00;;;15.80;99.90;;;;;;5011535;28;20180;-75
2023/07/27 07:14:48;;;;;;;6.40;5.70;;;15.80;99.90;;;;;;5011956;28;20172;-74
2023/07/27 07:17:14;;;;;;;6.87;6.17;;;15.90;99.90;;;;;;5011540;28;20191;-75
2023/07/27 07:19:39;;;;;;;6.80;5.70;;;15.90;99.90;;;;;;5011908;28;20291;-75
2023/07/27 07:22:05;;;;;;;7.90;6.40;;;16.00;99.90;;;;;;5011339;28;20176;-74
2023/07/27 07:24:30;;;;;;;5.53;5.13;;;16.00;99.90;;;;;;5011404;28;20279;-77
2023/07/27 07:26:56;;;;;;;6.07;5.20;;;16.10;99.90;;;;;;5011374;28;20169;-72
2023/07/27 07:29:22;;;;;;;5.80;5.37;;;16.10;99.90;;;;;;5010867;28;20196;-73
2023/07/27 07:31:48;;;;;;;5.47;5.07;;;16.10;99.90;;;;;;5011096;28;20176;-73
2023/07/27 07:34:14;;;;;;;5.47;5.07;;;16.20;99.90;;;;;;5011482;28;20180;-73
2023/07/27 07:36:39;;;;;;;8.03;4.97;;;16.20;99.90;;;;;;5011213;28;20214;-72
2023/07/27 07:39:05;;;;;;;5.50;5.10;;;16.20;99.90;;;;;;5010034;28;20665;-76
2023/07/27 07:41:31;;;;;;;5.47;5.07;;;16.30;99.90;;;;;;5009342;28;20180;-73
2023/07/27 07:43:57;;;;;;;5.23;4.67;;;16.40;99.90;;;;;;5011146;28;20592;-73
2023/07/27 07:46:22;;;;;;;5.43;4.73;;;16.40;99.90;;;;;;5010728;28;20199;-72
2023/07/27 07:48:48;;;;;;;5.07;4.60;;;16.40;99.90;;;;;;5011121;28;20192;-75
2023/07/27 07:51:15;;;;;;;4.37;4.07;;;16.50;99.90;;;;;;5011001;28;20180;-74
2023/07/27 07:53:41;;;;;;;4.57;4.27;;;16.60;99.90;;;;;;5010030;28;20268;-73
2023/07/27 07:56:13;;;;;;;4.27;3.97;;;16.60;99.90;;;;;;5012670;28;20242;-74
2023/07/27 07:58:38;;;;;;;4.30;4.00;;;16.60;99.90;;;;;;5014716;28;20681;-73
2023/07/27 08:01:04;;;;;;;4.60;4.30;;;16.70;99.90;;;;;;5014710;28;20183;-74
2023/07/27 08:03:30;;;;;;;4.53;4.23;;;16.80;99.90;;;;;;5014489;28;20203;-74
2023/07/27 08:05:55;;;;;;;4.40;4.10;;;16.80;99.90;;;;;;5013644;28;20232;-73
2023/07/27 08:08:21;;;;;;;4.10;3.80;;;16.80;99.90;;;;;;5013198;28;20681;-73
2023/07/27 08:10:47;;;;;;;4.00;3.70;;;16.90;99.90;;;;;;5014499;28;20283;-73
2023/07/27 08:13:13;;;;;;;4.20;3.90;;;16.90;99.90;;;;;;5014210;28;20633;-71
2023/07/27 08:15:39;;;;;;;4.10;3.80;;;16.90;99.90;;;;;;5014890;28;20226;-73
2023/07/27 08:18:04;;;;;;;4.20;3.90;;;16.90;99.90;;;;;;5014431;28;20267;-74
2023/07/27 08:20:30;;;;;;;4.60;4.30;;;16.90;99.90;;;;;;5014511;28;20655;-77
2023/07/27 08:22:56;;;;;;;4.07;3.87;;;16.90;99.90;;;;;;5014186;28;20177;-72
2023/07/27 08:25:21;;;;;;;4.30;4.00;;;17.00;99.90;;;;;;5012910;28;20564;-73
2023/07/27 08:27:48;;;;;;;4.20;3.90;;;17.00;99.90;;;;;;5014085;28;20322;-75
2023/07/27 08:30:13;;;;;;;3.90;3.70;;;17.00;99.90;;;;;;5014156;28;20228;-72
2023/07/27 08:32:40;;;;;;;5.00;3.87;;;17.00;99.90;;;;;;5013918;28;20180;-73
2023/07/27 08:35:06;;;;;;;4.20;3.90;;;17.00;99.90;;;;;;5014005;28;20645;-72
2023/07/27 08:37:31;;;;;;;4.47;4.07;;;17.00;99.90;;;;;;5014133;28;20191;-73
2023/07/27 08:39:58;;;;;;;4.30;4.00;;;17.00;99.90;;;;;;5014322;28;20541;-75
2023/07/27 08:42:24;;;;;;;4.50;4.10;;;17.00;99.90;;;;;;5012276;28;20192;-71
2023/07/27 08:44:50;;;;;;;4.50;4.20;;;17.00;99.90;;;;;;5013909;28;20211;-74
2023/07/27 08:47:16;;;;;;;3.80;3.60;;;17.00;99.90;;;;;;5013926;28;20172;-74
2023/07/27 08:49:44;;;;;;;4.40;4.00;;;17.00;99.90;;;;;;5014100;28;20593;-74
2023/07/27 08:52:12;;;;;;;4.77;4.33;;;17.10;99.90;;;;;;5013317;28;20259;-73
2023/07/27 08:54:38;;;;;;;4.10;3.80;;;17.10;99.90;;;;;;5014054;28;20191;-72
2023/07/27 08:57:04;;;;;;;4.40;4.10;;;17.20;99.90;;;;;;5013752;28;20573;-71
2023/07/27 08:59:29;;;;;;;4.27;3.97;;;17.20;99.90;;;;;;5013739;28;20196;-71
2023/07/27 09:01:55;;;;;;;4.17;3.87;;;17.30;99.90;;;;;;5013016;28;20656;-74
2023/07/27 09:04:21;;;;;;;4.33;4.03;;;17.20;99.90;;;;;;5013318;28;20176;-74
2023/07/27 09:06:49;;;;;;;4.10;3.80;;;17.30;99.90;;;;;;5012661;28;20195;-73
2023/07/27 09:09:21;;;;;;;4.23;3.97;;;17.30;99.90;;;;;;5013210;28;20188;-72
2023/07/27 09:11:47;;;;;;;4.40;4.10;;;17.30;99.90;;;;;;5013354;28;20172;-72
2023/07/27 09:14:18;;;;;;;4.20;3.90;;;17.40;99.90;;;;;;5013413;28;20166;-74
2023/07/27 09:16:44;;;;;;;5.00;4.20;;;17.50;99.90;;;;;;5013783;28;20634;-75
2023/07/27 09:19:10;;;;;;;4.13;3.83;;;17.50;99.90;;;;;;5012882;28;20204;-73
2023/07/27 09:21:41;;;;;;;4.67;3.87;;;17.60;99.90;;;;;;5011775;28;20720;-76
2023/07/27 09:24:13;;;;;;;4.47;4.07;;;17.60;99.90;;;;;;5013130;28;20641;-74
2023/07/27 09:26:47;;;;;;;9.90;4.73;;;17.60;99.90;;;;;;5013454;28;20250;-73
2023/07/27 09:29:14;;;;;;;4.33;4.03;;;17.60;99.90;;;;;;5013066;28;20249;-75
2023/07/27 09:31:51;;;;;;;3.90;3.70;;;17.60;99.90;;;;;;5013010;28;20172;-74
2023/07/27 09:34:21;;;;;;;4.00;3.70;;;17.70;99.90;;;;;;5013119;28;20187;-75
2023/07/27 09:36:47;;;;;;;4.10;3.80;;;17.70;99.90;;;;;;5002408;28;20176;-75
2023/07/27 09:39:15;;;;;;;4.47;4.17;;;17.70;99.90;;;;;;5012964;28;20196;-75
2023/07/27 09:41:45;;;;;;;4.23;3.93;;;17.80;99.90;;;;;;5012725;28;20176;-75
2023/07/27 09:44:17;;;;;;;4.13;3.90;;;17.80;99.90;;;;;;5013039;28;20180;-76
2023/07/27 09:46:45;;;;;;;4.57;4.17;;;17.90;99.90;;;;;;5012626;28;20187;-75
2023/07/27 09:49:12;;;;;;;5.07;4.17;;;18.00;99.90;;;;;;5012604;28;20223;-77
2023/07/27 09:51:38;;;;;;;4.90;4.43;;;18.00;99.90;;;;;;5012504;28;20557;-75
2023/07/27 09:54:05;;;;;;;4.60;4.23;;;17.90;99.90;;;;;;5012598;28;20184;-74
2023/07/27 09:56:31;;;;;;;4.23;3.83;;;17.90;99.90;;;;;;5013009;28;20172;-75
2023/07/27 09:58:58;;;;;;;4.13;3.90;;;17.90;99.90;;;;;;5012417;28;20258;-76
2023/07/27 10:01:24;;;;;;;4.33;4.00;;;18.00;99.90;;;;;;5012365;28;20706;-74
2023/07/27 10:03:50;;;;;;;4.53;4.23;;;18.00;99.90;;;;;;5011272;28;20172;-75
2023/07/27 10:06:17;;;;;;;4.93;4.53;;;18.00;99.90;;;;;;5012044;28;20558;-76
2023/07/27 10:08:45;;;;;;;5.03;4.53;;;17.90;99.90;;;;;;5012337;28;20204;-74
2023/07/27 10:11:11;;;;;;;4.83;4.43;;;17.90;99.90;;;;;;5012277;28;20191;-74
2023/07/27 10:13:37;;;;;;;4.43;4.03;;;17.90;99.90;;;;;;5012534;28;20656;-73
2023/07/27 10:16:07;;;;;;;4.23;3.93;;;18.00;99.90;;;;;;5012514;28;20246;-73
2023/07/27 10:18:39;;;;;;;4.80;4.40;;;18.00;99.90;;;;;;5012263;28;20241;-73
2023/07/27 10:21:25;;;;;;;4.60;4.20;;;18.10;99.90;;;;;;5010836;28;20251;-73
2023/07/27 10:24:02;;;;;;;4.30;3.90;;;18.20;99.90;;;;;;5011743;28;20211;-74
2023/07/27 10:26:44;;;;;;;4.60;4.20;;;18.30;99.90;;;;;;5011588;28;20654;-76
2023/07/27 10:29:17;;;;;;;5.00;4.60;;;18.40;99.90;;;;;;5011490;28;20286;-75
2023/07/27 10:31:45;;;;;;;4.30;3.90;;;18.50;99.90;;;;;;4992431;28;20247;-76
2023/07/27 10:34:17;;;;;;;4.30;3.90;;;18.50;99.90;;;;;;4991084;28;20173;-75
2023/07/27 10:37:03;;;;;;;6.30;3.83;;;18.50;99.90;;;;;;4992453;28;20227;-73
2023/07/27 10:39:48;;;;;;;3.90;3.60;;;18.30;99.90;;;;;;5004578;28;20661;-75
2023/07/27 10:42:15;;;;;;;4.40;4.00;;;18.20;99.90;;;;;;5000745;28;20172;-75
2023/07/27 10:44:46;;;;;;;4.30;4.00;;;18.20;99.90;;;;;;5011218;28;20338;-76
2023/07/27 10:47:25;;;;;;;4.67;4.23;;;18.30;99.90;;;;;;5009778;28;20253;-74
2023/07/27 10:49:55;;;;;;;3.87;3.57;;;18.40;99.90;;;;;;5011854;28;20179;-76
2023/07/27 10:52:22;;;;;;;3.90;3.60;;;18.40;99.90;;;;;;5011117;28;20176;-76
2023/07/27 10:54:49;;;;;;;3.60;3.30;;;18.60;99.90;;;;;;5011426;28;20184;-75
2023/07/27 10:57:17;;;;;;;3.80;3.60;;;18.70;99.90;;;;;;5009375;28;20488;-75
2023/07/27 10:59:45;;;;;;;3.73;3.43;;;18.70;99.90;;;;;;5010371;28;20352;-75
2023/07/27 11:02:20;;;;;;;3.87;3.60;;;18.80;99.90;;;;;;5008875;28;20184;-75
2023/07/27 11:04:52;;;;;;;3.40;3.20;;;18.80;99.90;;;;;;5009232;28;20265;-75
2023/07/27 11:07:39;;;;;;;3.73;3.43;;;18.90;99.90;;;;;;5011242;28;20286;-76
2023/07/27 11:10:09;;;;;;;3.50;3.30;;;19.00;99.90;;;;;;5011374;28;20179;-75
2023/07/27 11:12:52;;;;;;;3.87;3.20;;;19.00;99.90;;;;;;5009670;28;20176;-76
2023/07/27 11:15:20;;;;;;;3.00;2.80;;;19.10;99.90;;;;;;5009794;28;20193;-74
2023/07/27 11:17:47;;;;;;;3.20;3.00;;;19.30;99.90;;;;;;5010030;28;20200;-75
2023/07/27 11:20:14;;;;;;;3.20;3.00;;;19.40;99.90;;;;;;5009463;28;20563;-75
2023/07/27 11:22:40;;;;;;;3.47;3.20;;;19.40;99.90;;;;;;5011233;28;20178;-74
2023/07/27 11:25:06;;;;;;;3.60;3.23;;;19.40;99.90;;;;;;5010963;28;20204;-74
2023/07/27 11:27:32;;;;;;;3.67;3.37;;;19.20;99.90;;;;;;5011560;28;20179;-74
2023/07/27 11:29:59;;;;;;;3.43;3.23;;;19.10;99.90;;;;;;5014099;28;20172;-75
2023/07/27 11:32:25;;;;;;;3.37;3.17;;;19.00;99.90;;;;;;5015504;28;20272;-74
2023/07/27 11:34:55;;;;;;;3.87;3.57;;;18.80;99.90;;;;;;5015015;28;20184;-75
2023/07/27 11:37:20;;;;;;;3.40;3.20;;;18.70;99.90;;;;;;5015037;28;20267;-74
2023/07/27 11:39:46;;;;;;;4.17;3.87;;;18.70;99.90;;;;;;5015627;28;20219;-75
2023/07/27 11:42:13;;;;;;;3.70;3.40;;;18.60;99.90;;;;;;5014367;28;20195;-76
2023/07/27 11:44:39;;;;;;;3.53;3.30;;;18.70;99.90;;;;;;5015351;28;20205;-75
2023/07/27 11:47:05;;;;;;;4.13;3.50;;;18.70;99.90;;;;;;5013587;28;20242;-74
2023/07/27 11:49:30;;;;;;;3.60;3.40;;;18.80;99.90;;;;;;5015210;28;20204;-74
2023/07/27 11:51:56;;;;;;;3.60;3.40;;;18.90;99.90;;;;;;5013040;28;20616;-75
2023/07/27 11:54:24;;;;;;;3.33;3.13;;;19.00;99.90;;;;;;5014771;28;20199;-74
2023/07/27 11:56:55;;;;;;;3.57;3.27;;;19.00;99.90;;;;;;5014984;28;20168;-75
2023/07/27 11:59:21;;;;;;;3.47;3.27;;;19.00;99.90;;;;;;5014765;28;20207;-74
2023/07/27 12:01:51;;;;;;;3.50;3.20;;;19.10;99.90;;;;;;5014674;28;20534;-75
2023/07/27 12:04:19;;;;;;;3.53;3.17;;;19.20;99.90;;;;;;5014748;28;20172;-75
2023/07/27 12:06:45;;;;;;;3.40;3.07;;;19.40;99.90;;;;;;5014813;28;20215;-73
2023/07/27 12:09:11;;;;;;;3.43;3.13;;;19.40;99.90;;;;;;5014518;28;20198;-74
2023/07/27 12:11:37;;;;;;;3.53;3.23;;;19.50;99.90;;;;;;5014528;28;20180;-74
2023/07/27 12:14:07;;;;;;;5.97;3.30;;;19.50;99.90;;;;;;5014458;28;20567;-74
2023/07/27 12:16:41;;;;;;;3.60;3.30;;;19.50;99.90;;;;;;5013546;28;20184;-75
2023/07/27 12:19:07;;;;;;;3.60;2.40;;;19.60;99.90;;;;;;5013602;28;20259;-75
2023/07/27 12:21:34;;;;;;;3.13;2.93;;;19.70;99.90;;;;;;5014253;28;20185;-74
2023/07/27 12:24:02;;;;;;;3.10;2.80;;;19.70;99.90;;;;;;5014492;28;20172;-74
2023/07/27 12:26:27;;;;;;;2.90;2.60;;;19.70;99.90;;;;;;5012180;28;20208;-74
2023/07/27 12:28:53;;;;;;;2.70;2.57;;;19.50;99.90;;;;;;5013628;28;20760;-75
2023/07/27 12:31:19;;;;;;;4.47;3.20;;;19.50;99.90;;;;;;5013356;28;20212;-73
2023/07/27 12:33:44;;;;;;;3.17;2.97;;;19.60;99.90;;;;;;5012661;28;20195;-74
2023/07/27 12:36:10;;;;;;;3.17;2.60;;;19.60;99.90;;;;;;5013850;28;20246;-74
2023/07/27 12:38:35;;;;;;;2.67;2.47;;;19.60;99.90;;;;;;5014471;28;20202;-73
2023/07/27 12:41:01;;;;;;;2.43;2.33;;;19.70;99.90;;;;;;5012851;28;20576;-72
2023/07/27 12:43:27;;;;;;;2.50;2.40;;;19.60;99.90;;;;;;5013809;28;20180;-72
2023/07/27 12:45:52;;;;;;;2.40;2.30;;;19.60;99.90;;;;;;5012738;28;20211;-74